Time;durP1;ratioP1;P1;durP2;ratioP2;P2;SDS_P1;SDS_P2;PMS_P1;PMS_P2;Temp;Humidity;BMP_temperature;BMP_pressure;BME280_temperature;BME280_humidity;BME280_pressure;Samples;Min_cycle;Max_cycle;Signal;HPM_P1;HPM_P2
2023/05/30 00:00:58;;;;;;;7.50;4.37;;;;;;;18.80;63.58;98311.09;4200417;28;20700;-85
2023/05/30 00:03:04;;;;;;;6.20;3.70;;;;;;;18.73;64.05;98323.22;4201067;28;20632;-85
2023/05/30 00:05:09;;;;;;;5.47;4.00;;;;;;;18.70;64.45;98328.81;4179857;28;20636;-84
2023/05/30 00:07:12;;;;;;;6.47;3.87;;;;;;;18.63;64.55;98331.22;4197826;28;20628;-85
2023/05/30 00:09:15;;;;;;;5.53;3.63;;;;;;;18.64;64.97;98330.25;4197699;28;20632;-84
2023/05/30 00:11:19;;;;;;;6.47;3.67;;;;;;;18.60;64.64;98333.34;4199904;28;20659;-85
2023/05/30 00:13:22;;;;;;;5.07;3.43;;;;;;;18.66;65.08;98343.31;4195437;28;21012;-85
2023/05/30 00:15:26;;;;;;;5.13;3.77;;;;;;;18.62;65.13;98337.47;4190372;28;21286;-85
2023/05/30 00:17:29;;;;;;;4.97;3.47;;;;;;;18.55;64.96;98330.28;4204214;28;20628;-85
2023/05/30 00:19:34;;;;;;;5.00;3.60;;;;;;;18.50;65.29;98343.94;4180078;28;20639;-84
2023/05/30 00:21:37;;;;;;;5.17;3.77;;;;;;;18.52;65.10;98328.78;4192304;28;20672;-85
2023/05/30 00:23:40;;;;;;;8.00;4.00;;;;;;;18.52;64.50;98346.44;4190442;28;20643;-84
2023/05/30 00:25:45;;;;;;;8.40;3.80;;;;;;;18.43;64.69;98332.31;4191929;28;21338;-85
2023/05/30 00:27:48;;;;;;;4.37;3.50;;;;;;;18.44;65.16;98343.72;4173845;28;20628;-84
2023/05/30 00:29:51;;;;;;;4.60;3.33;;;;;;;18.45;65.26;98335.63;4204083;28;20651;-84
2023/05/30 00:31:54;;;;;;;6.80;3.80;;;;;;;18.37;65.31;98339.16;4185558;28;22711;-85
2023/05/30 00:33:58;;;;;;;4.93;3.63;;;;;;;18.34;65.43;98342.09;4188997;28;20674;-84
2023/05/30 00:36:02;;;;;;;4.67;3.70;;;;;;;18.32;65.26;98338.78;4189882;28;20677;-85
2023/05/30 00:38:06;;;;;;;5.40;3.50;;;;;;;18.33;65.64;98337.78;4180407;28;20620;-85
2023/05/30 00:40:09;;;;;;;5.93;3.50;;;;;;;18.33;65.80;98329.84;4188487;28;20690;-85
2023/05/30 00:42:12;;;;;;;5.03;3.90;;;;;;;18.27;65.92;98333.94;4195462;28;21274;-85
2023/05/30 00:44:16;;;;;;;4.80;3.00;;;;;;;18.22;66.35;98332.69;4197215;28;20632;-84
2023/05/30 00:46:20;;;;;;;6.23;3.60;;;;;;;18.23;66.06;98344.91;4187043;28;20639;-85
2023/05/30 00:48:23;;;;;;;5.00;3.50;;;;;;;18.22;66.04;98340.59;4185802;28;24515;-84
2023/05/30 00:50:28;;;;;;;6.03;3.90;;;;;;;18.14;65.56;98345.78;4171203;28;20661;-85
2023/05/30 00:52:33;;;;;;;4.67;3.50;;;;;;;18.13;66.10;98344.13;4192996;28;20628;-84
2023/05/30 00:54:36;;;;;;;5.93;3.70;;;;;;;18.08;66.07;98351.63;4197689;28;20731;-85
2023/05/30 00:56:40;;;;;;;5.17;3.07;;;;;;;18.09;66.43;98342.72;4186793;28;21138;-85
2023/05/30 00:58:43;;;;;;;6.03;3.77;;;;;;;18.01;66.01;98350.53;4186223;28;20623;-85
2023/05/30 01:00:47;;;;;;;5.73;3.40;;;;;;;18.04;65.86;98340.53;4192573;28;20686;-84
2023/05/30 01:02:51;;;;;;;7.40;3.97;;;;;;;18.05;66.18;98341.34;4179046;28;20640;-85
2023/05/30 01:04:55;;;;;;;5.27;3.70;;;;;;;18.03;65.93;98344.13;4194707;28;21170;-85
2023/05/30 01:06:58;;;;;;;6.27;3.43;;;;;;;17.99;66.09;98341.91;4192150;28;20666;-85
2023/05/30 01:09:04;;;;;;;5.13;3.40;;;;;;;17.90;66.25;98342.78;4184516;28;20639;-84
2023/05/30 01:11:13;;;;;;;7.93;3.50;;;;;;;17.89;66.88;98330.56;4187458;28;20707;-85
2023/05/30 01:13:26;;;;;;;5.63;3.60;;;;;;;17.86;66.65;98336.16;4185404;28;21280;-85
2023/05/30 01:15:32;;;;;;;4.63;3.53;;;;;;;17.85;67.46;98336.28;4181736;28;20665;-85
2023/05/30 01:17:44;;;;;;;5.90;3.60;;;;;;;17.82;67.07;98324.19;4190300;28;21074;-85
2023/05/30 01:20:04;;;;;;;5.97;3.80;;;;;;;17.81;66.80;98319.06;4184964;28;20680;-86
2023/05/30 01:22:20;;;;;;;6.00;3.60;;;;;;;17.76;68.11;98319.50;4187206;28;20659;-85
2023/05/30 01:24:33;;;;;;;5.43;3.60;;;;;;;17.75;67.45;98317.00;4189064;28;20662;-85
2023/05/30 01:26:53;;;;;;;6.00;4.10;;;;;;;17.76;67.38;98321.31;4175618;28;20730;-86
2023/05/30 01:29:02;;;;;;;5.20;3.67;;;;;;;17.72;67.81;98326.03;4186906;28;20697;-86
2023/05/30 01:31:06;;;;;;;5.30;3.97;;;;;;;17.74;67.03;98313.53;4200988;28;20645;-85
2023/05/30 01:33:09;;;;;;;5.87;3.73;;;;;;;17.74;67.43;98316.19;4188041;28;20700;-85
2023/05/30 01:35:22;;;;;;;5.83;3.83;;;;;;;17.66;67.07;98316.03;4190958;28;20627;-85
2023/05/30 01:37:26;;;;;;;5.43;3.30;;;;;;;17.68;67.74;98319.38;4188788;28;20757;-86
2023/05/30 01:39:29;;;;;;;6.30;4.00;;;;;;;17.67;68.57;98328.25;4196419;28;20649;-85
2023/05/30 01:41:38;;;;;;;5.77;3.60;;;;;;;17.67;68.15;98317.72;4199155;28;21054;-85
2023/05/30 01:43:47;;;;;;;4.73;3.50;;;;;;;17.66;68.25;98318.66;4191580;28;21366;-85
2023/05/30 01:45:56;;;;;;;6.33;3.50;;;;;;;17.67;68.03;98315.06;4179019;28;21434;-86
2023/05/30 01:48:01;;;;;;;5.03;3.47;;;;;;;17.64;68.38;98323.28;4193624;28;20651;-85
2023/05/30 01:50:09;;;;;;;6.07;4.00;;;;;;;17.60;68.70;98313.97;4189605;28;20643;-86
2023/05/30 01:52:14;;;;;;;7.10;3.83;;;;;;;17.61;68.08;98318.28;4196060;28;20704;-86
2023/05/30 01:54:20;;;;;;;5.97;4.17;;;;;;;17.60;67.40;98319.25;4168452;28;20731;-84
2023/05/30 01:56:25;;;;;;;6.83;3.83;;;;;;;17.58;67.75;98320.38;4191862;28;20665;-86
2023/05/30 01:58:29;;;;;;;5.97;3.70;;;;;;;17.57;68.47;98319.53;4195400;28;20638;-85
2023/05/30 02:00:32;;;;;;;7.00;3.87;;;;;;;17.57;68.61;98319.53;4191587;28;21017;-85
2023/05/30 02:02:37;;;;;;;4.67;3.60;;;;;;;17.52;67.93;98320.94;4200112;28;20736;-86
2023/05/30 02:04:40;;;;;;;5.97;3.50;;;;;;;17.51;68.42;98319.25;4203579;28;20677;-85
2023/05/30 02:06:43;;;;;;;4.80;3.70;;;;;;;17.51;67.85;98325.41;4202357;28;21354;-86
2023/05/30 02:08:47;;;;;;;5.73;4.10;;;;;;;17.54;68.66;98325.09;4190858;28;20663;-85
2023/05/30 02:10:51;;;;;;;6.93;3.63;;;;;;;17.47;68.90;98328.47;4187221;28;20619;-86
2023/05/30 02:12:54;;;;;;;6.47;3.87;;;;;;;17.45;68.57;98324.28;4202254;28;20631;-85
2023/05/30 02:14:57;;;;;;;5.03;3.20;;;;;;;17.46;68.17;98325.97;4183782;28;20678;-86
2023/05/30 02:17:01;;;;;;;7.30;4.10;;;;;;;17.49;68.73;98337.06;4199345;28;20676;-86
2023/05/30 02:19:06;;;;;;;4.20;3.03;;;;;;;17.47;68.31;98331.91;4198966;28;21247;-85
2023/05/30 02:21:10;;;;;;;7.30;3.80;;;;;;;17.49;68.40;98335.22;4185353;28;20628;-85
2023/05/30 02:23:13;;;;;;;4.93;3.93;;;;;;;17.51;68.46;98343.88;4177455;28;20657;-85
2023/05/30 02:25:17;;;;;;;6.10;3.77;;;;;;;17.50;68.13;98339.56;4193544;28;20693;-85
2023/05/30 02:27:24;;;;;;;5.53;3.60;;;;;;;17.49;68.57;98345.78;4174710;28;20655;-85
2023/05/30 02:29:28;;;;;;;6.53;3.67;;;;;;;17.50;68.55;98360.66;4175957;28;20626;-85
2023/05/30 02:31:33;;;;;;;5.47;3.70;;;;;;;17.52;67.38;98357.88;4195381;28;20676;-85
2023/05/30 02:33:36;;;;;;;4.97;3.73;;;;;;;17.45;67.83;98348.84;4176589;28;20668;-85
2023/05/30 02:35:41;;;;;;;5.60;3.60;;;;;;;17.46;67.88;98348.69;4177024;28;20669;-85
2023/05/30 02:37:45;;;;;;;5.10;3.73;;;;;;;17.46;69.20;98341.78;4180611;28;20639;-85
2023/05/30 02:39:48;;;;;;;5.90;3.90;;;;;;;17.46;67.72;98346.06;4174737;28;21790;-85
2023/05/30 02:41:51;;;;;;;5.20;3.80;;;;;;;17.44;68.56;98343.72;4187470;28;21018;-85
2023/05/30 02:43:55;;;;;;;6.80;3.97;;;;;;;17.44;67.58;98344.56;4176920;28;20643;-85
2023/05/30 02:46:00;;;;;;;5.07;3.87;;;;;;;17.46;69.06;98353.16;4173211;28;20705;-85
2023/05/30 02:48:05;;;;;;;5.53;3.80;;;;;;;17.42;69.13;98341.22;4196514;28;20643;-85
2023/05/30 02:50:09;;;;;;;4.70;3.07;;;;;;;17.43;67.66;98349.97;4182546;28;20744;-86
2023/05/30 02:52:14;;;;;;;7.20;3.87;;;;;;;17.44;67.78;98354.25;4198139;28;20618;-86
2023/05/30 02:54:26;;;;;;;3.70;3.20;;;;;;;17.40;69.14;98351.06;4178943;28;20644;-85
2023/05/30 02:56:56;;;;;;;6.77;3.87;;;;;;;17.42;69.33;98358.84;4184953;28;20656;-85
2023/05/30 02:59:17;;;;;;;4.37;3.30;;;;;;;17.41;68.63;98354.53;4191854;28;20626;-85
2023/05/30 03:01:30;;;;;;;7.43;3.27;;;;;;;17.41;69.73;98365.09;4193881;28;21729;-85
2023/05/30 03:03:36;;;;;;;5.10;3.40;;;;;;;17.42;69.30;98366.75;4189764;28;20635;-85
2023/05/30 03:05:51;;;;;;;6.57;4.00;;;;;;;17.44;68.30;98370.94;4173024;28;21443;-85
2023/05/30 03:08:10;;;;;;;7.63;3.73;;;;;;;17.46;69.66;98371.63;4196261;28;20631;-85
2023/05/30 03:10:28;;;;;;;4.00;3.07;;;;;;;17.43;70.11;98369.25;4190490;28;20776;-87
2023/05/30 03:12:31;;;;;;;5.03;3.57;;;;;;;17.38;69.04;98370.63;4176907;28;21299;-85
2023/05/30 03:14:34;;;;;;;4.83;3.40;;;;;;;17.39;70.37;98373.13;4189765;28;20758;-85
2023/05/30 03:16:39;;;;;;;7.67;3.53;;;;;;;17.34;70.10;98367.47;4194975;28;20630;-85
2023/05/30 03:18:44;;;;;;;7.87;3.40;;;;;;;17.39;70.37;98377.59;4179402;28;21234;-85
2023/05/30 03:20:49;;;;;;;6.00;3.57;;;;;;;17.39;70.75;98377.59;4180088;28;21522;-85
2023/05/30 03:22:53;;;;;;;5.20;3.80;;;;;;;17.33;69.14;98381.59;4190067;28;20702;-85
2023/05/30 03:24:57;;;;;;;8.20;3.60;;;;;;;17.27;70.02;98379.53;4191244;28;20678;-85
2023/05/30 03:27:02;;;;;;;5.40;3.73;;;;;;;17.26;69.35;98384.94;4194393;28;21194;-85
2023/05/30 03:29:05;;;;;;;4.50;3.20;;;;;;;17.27;69.76;98383.97;4194569;28;20669;-85
2023/05/30 03:31:08;;;;;;;5.17;3.00;;;;;;;17.31;68.54;98386.19;4195103;28;20707;-84
2023/05/30 03:33:12;;;;;;;5.70;3.60;;;;;;;17.35;70.09;98392.88;4191731;28;20642;-85
2023/05/30 03:35:15;;;;;;;4.83;3.40;;;;;;;17.39;69.30;98398.69;4172954;28;20735;-85
2023/05/30 03:37:18;;;;;;;4.47;3.37;;;;;;;17.39;69.06;98396.06;4172060;28;20660;-85
2023/05/30 03:39:23;;;;;;;5.73;3.67;;;;;;;17.40;69.28;98398.56;4190242;28;20639;-84
2023/05/30 03:41:27;;;;;;;5.60;3.60;;;;;;;17.37;68.70;98398.81;4203629;28;21079;-84
2023/05/30 03:43:32;;;;;;;5.00;3.40;;;;;;;17.40;69.38;98395.09;4185262;28;20647;-85
2023/05/30 03:45:35;;;;;;;4.33;2.90;;;;;;;17.41;69.66;98392.31;4178683;28;21309;-84
2023/05/30 03:47:38;;;;;;;7.50;3.77;;;;;;;17.40;69.44;98392.47;4192314;28;20640;-85
2023/05/30 03:49:42;;;;;;;6.90;3.00;;;;;;;17.39;69.41;98398.69;4197042;28;20626;-85
2023/05/30 03:51:45;;;;;;;7.73;2.47;;;;;;;17.37;68.94;98398.81;4179006;28;20650;-85
2023/05/30 03:53:49;;;;;;;4.60;3.47;;;;;;;17.40;69.31;98401.19;4180338;28;20644;-85
2023/05/30 03:55:55;;;;;;;5.83;4.00;;;;;;;17.44;70.05;98399.94;4187042;28;20630;-85
2023/05/30 03:58:00;;;;;;;4.43;3.17;;;;;;;17.48;69.35;98398.69;4186504;28;20626;-85
2023/05/30 04:00:03;;;;;;;4.73;3.10;;;;;;;17.50;70.23;98409.94;4192153;28;20647;-85
2023/05/30 04:02:14;;;;;;;4.47;3.40;;;;;;;17.47;68.94;98402.31;4195206;28;21448;-85
2023/05/30 04:04:17;;;;;;;7.77;3.40;;;;;;;17.50;69.15;98405.50;4187616;28;20978;-85
2023/05/30 04:06:20;;;;;;;4.50;3.00;;;;;;;17.49;68.93;98409.09;4181334;28;20767;-87
2023/05/30 04:08:23;;;;;;;5.40;3.33;;;;;;;17.48;68.51;98412.72;4192618;28;20667;-85
2023/05/30 04:10:26;;;;;;;4.30;2.90;;;;;;;17.52;70.61;98414.09;4185473;28;20648;-85
2023/05/30 04:12:29;;;;;;;5.80;3.50;;;;;;;17.56;69.34;98420.75;4200679;28;20627;-85
2023/05/30 04:14:35;;;;;;;5.67;3.87;;;;;;;17.57;71.23;98425.03;4207055;28;20631;-85
2023/05/30 04:16:38;;;;;;;6.83;3.60;;;;;;;17.56;71.27;98425.19;4197509;28;21264;-85
2023/05/30 04:18:43;;;;;;;7.10;3.20;;;;;;;17.59;68.94;98423.13;4203590;28;21029;-86
2023/05/30 04:20:47;;;;;;;4.67;3.53;;;;;;;17.59;69.89;98417.84;4208878;28;20630;-86
2023/05/30 04:22:50;;;;;;;4.30;3.20;;;;;;;17.54;69.67;98414.78;4183010;28;20697;-86
2023/05/30 04:24:53;;;;;;;7.43;3.97;;;;;;;17.55;69.52;98423.53;4199112;28;20635;-86
2023/05/30 04:26:57;;;;;;;4.40;3.33;;;;;;;17.54;70.52;98427.97;4195837;28;20689;-86
2023/05/30 04:29:01;;;;;;;5.23;3.40;;;;;;;17.42;69.86;98424.78;4198884;28;21207;-86
2023/05/30 04:31:06;;;;;;;4.33;2.97;;;;;;;17.41;70.79;98425.75;4201567;28;20644;-86
2023/05/30 04:33:24;;;;;;;6.00;3.50;;;;;;;17.49;70.37;98426.72;4202984;28;20647;-86
2023/05/30 04:35:27;;;;;;;5.93;3.43;;;;;;;17.50;71.64;98429.22;4191435;28;20669;-86
2023/05/30 04:37:38;;;;;;;6.37;3.03;;;;;;;17.50;69.88;98431.88;4198642;28;20642;-86
2023/05/30 04:39:41;;;;;;;5.50;2.83;;;;;;;17.52;71.28;98429.91;4201610;28;20631;-87
2023/05/30 04:41:44;;;;;;;5.00;3.47;;;;;;;17.55;70.96;98436.72;4189877;28;20631;-86
2023/05/30 04:43:52;;;;;;;4.00;2.93;;;;;;;17.58;70.92;98437.28;4200161;28;20805;-86
2023/05/30 04:45:58;;;;;;;5.90;3.17;;;;;;;17.53;71.03;98439.50;4197025;28;20735;-86
2023/05/30 04:48:16;;;;;;;5.73;3.40;;;;;;;17.62;69.79;98443.94;4177962;28;20723;-86
2023/05/30 04:50:20;;;;;;;4.60;3.43;;;;;;;17.69;69.44;98454.78;4201887;28;20636;-86
2023/05/30 04:52:24;;;;;;;5.30;3.30;;;;;;;17.72;69.35;98444.75;4205886;28;20635;-86
2023/05/30 04:54:29;;;;;;;5.60;3.10;;;;;;;17.78;70.66;98454.75;4182291;28;20631;-86
2023/05/30 04:56:32;;;;;;;3.97;3.00;;;;;;;17.84;70.37;98454.19;4185715;28;20636;-86
2023/05/30 04:58:35;;;;;;;6.27;3.60;;;;;;;17.91;69.57;98457.13;4196491;28;20623;-86
2023/05/30 05:00:38;;;;;;;5.20;3.30;;;;;;;17.97;69.31;98460.03;4194799;28;23643;-86
2023/05/30 05:02:42;;;;;;;4.83;2.93;;;;;;;18.00;70.02;98460.56;4182012;28;20648;-86
2023/05/30 05:04:46;;;;;;;7.70;3.50;;;;;;;18.03;70.42;98472.66;4190011;28;21204;-86
2023/05/30 05:06:49;;;;;;;4.30;3.23;;;;;;;18.10;70.13;98473.75;4198417;28;20765;-86
2023/05/30 05:08:52;;;;;;;6.00;3.40;;;;;;;18.13;70.32;98463.78;4200514;28;21678;-86
2023/05/30 05:10:56;;;;;;;4.60;3.20;;;;;;;18.06;69.28;98469.75;4196905;28;20639;-86
2023/05/30 05:12:59;;;;;;;5.33;3.57;;;;;;;18.09;69.55;98467.66;4202129;28;20674;-86
2023/05/30 05:15:02;;;;;;;5.90;3.83;;;;;;;18.08;69.47;98468.63;4203231;28;20635;-86
2023/05/30 05:17:06;;;;;;;6.23;3.80;;;;;;;18.15;70.00;98469.75;4199404;28;20677;-86
2023/05/30 05:19:09;;;;;;;5.23;3.13;;;;;;;18.27;69.97;98478.38;4201530;28;20734;-86
2023/05/30 05:21:14;;;;;;;5.83;3.10;;;;;;;18.36;69.32;98482.75;4192731;28;21185;-86
2023/05/30 05:23:17;;;;;;;7.10;3.57;;;;;;;18.43;68.71;98479.41;4198596;28;20660;-86
2023/05/30 05:25:20;;;;;;;4.97;3.37;;;;;;;18.52;68.93;98482.03;4200508;28;20722;-86
2023/05/30 05:27:23;;;;;;;3.83;2.87;;;;;;;18.59;69.44;98488.41;4199272;28;20670;-86
2023/05/30 05:29:26;;;;;;;5.03;3.00;;;;;;;18.61;68.53;98489.09;4197765;28;20628;-86
2023/05/30 05:31:32;;;;;;;6.57;3.47;;;;;;;18.67;69.40;98493.81;4198457;28;21254;-86
2023/05/30 05:33:36;;;;;;;4.47;3.03;;;;;;;18.74;70.12;98494.88;4197140;28;21173;-86
2023/05/30 05:35:40;;;;;;;5.53;3.40;;;;;;;18.79;69.42;98497.09;4198854;28;20642;-86
2023/05/30 05:37:44;;;;;;;4.53;3.10;;;;;;;18.81;69.02;98495.97;4193128;28;20628;-86
2023/05/30 05:39:47;;;;;;;5.27;3.23;;;;;;;18.86;67.93;98511.41;4198809;28;20649;-86
2023/05/30 05:41:50;;;;;;;5.23;2.83;;;;;;;18.92;67.85;98514.28;4193131;28;20639;-87
2023/05/30 05:43:53;;;;;;;4.20;2.70;;;;;;;18.96;67.52;98510.38;4191531;28;20768;-86
2023/05/30 05:45:57;;;;;;;6.00;3.50;;;;;;;19.02;68.49;98521.25;4187162;28;20656;-86
2023/05/30 05:48:01;;;;;;;5.07;2.90;;;;;;;19.10;66.91;98517.88;4200871;28;20634;-86
2023/05/30 05:50:04;;;;;;;4.90;3.50;;;;;;;19.18;67.34;98515.31;4205820;28;20619;-86
2023/05/30 05:52:07;;;;;;;5.27;3.30;;;;;;;19.26;68.73;98516.25;4194718;28;21195;-86
2023/05/30 05:54:12;;;;;;;4.87;3.07;;;;;;;19.35;67.82;98522.44;4198704;28;20631;-86
2023/05/30 05:56:15;;;;;;;4.60;2.93;;;;;;;19.42;67.08;98527.84;4194577;28;20723;-86
2023/05/30 05:58:18;;;;;;;3.70;2.73;;;;;;;19.50;66.42;98530.59;4196502;28;20622;-86
2023/05/30 06:00:21;;;;;;;6.10;3.60;;;;;;;19.59;65.68;98532.34;4196667;28;20749;-86
2023/05/30 06:02:25;;;;;;;4.40;3.20;;;;;;;19.72;67.35;98539.91;4188892;28;20790;-86
2023/05/30 06:04:28;;;;;;;5.27;3.57;;;;;;;19.80;68.81;98545.28;4204094;28;20651;-86
2023/05/30 06:06:31;;;;;;;5.30;3.23;;;;;;;19.81;66.53;98537.19;4197553;28;20701;-86
2023/05/30 06:08:34;;;;;;;6.20;3.20;;;;;;;19.83;66.00;98535.22;4195627;28;20643;-86
2023/05/30 06:10:39;;;;;;;4.83;2.87;;;;;;;19.87;63.96;98542.75;4194567;28;20736;-86
2023/05/30 06:12:42;;;;;;;6.87;3.10;;;;;;;19.86;62.88;98537.63;4190032;28;20786;-86
2023/05/30 06:14:45;;;;;;;5.67;2.63;;;;;;;19.86;62.79;98546.38;4197489;28;20640;-87
2023/05/30 06:16:48;;;;;;;4.27;3.20;;;;;;;19.99;65.06;98551.28;4184682;28;20647;-87
2023/05/30 06:18:51;;;;;;;5.43;3.70;;;;;;;20.21;65.58;98556.16;4195348;28;20633;-87
2023/05/30 06:20:54;;;;;;;4.37;3.00;;;;;;;20.42;62.94;98557.47;4202026;28;21113;-87
2023/05/30 06:22:58;;;;;;;4.80;2.60;;;;;;;20.51;65.77;98564.50;4193435;28;20706;-87
2023/05/30 06:25:02;;;;;;;3.60;2.57;;;;;;;20.63;64.48;98564.09;4202860;28;20668;-87
2023/05/30 06:27:07;;;;;;;4.50;3.30;;;;;;;20.78;65.02;98567.88;4180500;28;20689;-86
2023/05/30 06:29:10;;;;;;;4.10;2.77;;;;;;;20.90;65.34;98567.44;4196615;28;20642;-86
2023/05/30 06:31:13;;;;;;;6.00;3.30;;;;;;;21.00;64.63;98570.00;4191339;28;20679;-86
2023/05/30 06:33:17;;;;;;;4.03;2.93;;;;;;;21.05;64.71;98571.19;4195162;28;20666;-86
2023/05/30 06:35:20;;;;;;;5.90;3.10;;;;;;;21.18;64.26;98566.25;4191395;28;20664;-86
2023/05/30 06:37:23;;;;;;;5.90;3.80;;;;;;;21.27;61.16;98578.59;4192449;28;20627;-86
2023/05/30 06:39:27;;;;;;;4.83;2.60;;;;;;;21.20;60.22;98566.97;4184708;28;21368;-86
2023/05/30 06:41:30;;;;;;;4.53;3.07;;;;;;;21.28;62.94;98577.59;4195958;28;20710;-86
2023/05/30 06:43:34;;;;;;;4.30;2.50;;;;;;;21.41;62.19;98568.22;4190764;28;20670;-87
2023/05/30 06:45:37;;;;;;;5.40;3.00;;;;;;;21.60;63.34;98561.84;4195246;28;20706;-87
2023/05/30 06:47:41;;;;;;;4.77;3.27;;;;;;;21.75;62.87;98576.16;4181521;28;20665;-88
2023/05/30 06:49:44;;;;;;;5.47;2.80;;;;;;;21.78;60.32;98574.00;4197314;28;20636;-87
2023/05/30 06:51:47;;;;;;;3.70;2.43;;;;;;;21.88;62.47;98585.34;4204097;28;20659;-87
2023/05/30 06:53:50;;;;;;;3.00;2.40;;;;;;;21.82;60.56;98580.66;4201970;28;20633;-87
2023/05/30 06:55:53;;;;;;;4.37;2.80;;;;;;;21.82;62.37;98578.00;4204234;28;20645;-87
2023/05/30 06:57:57;;;;;;;5.77;3.80;;;;;;;21.84;61.47;98581.31;4186135;28;21465;-87
2023/05/30 07:00:01;;;;;;;4.10;2.97;;;;;;;21.98;62.25;98578.88;4195288;28;20739;-87
2023/05/30 07:02:05;;;;;;;4.60;2.93;;;;;;;22.14;59.24;98578.06;4182092;28;20651;-87
2023/05/30 07:04:08;;;;;;;5.27;2.70;;;;;;;22.17;60.09;98577.75;4200272;28;20632;-87
2023/05/30 07:06:12;;;;;;;4.80;2.90;;;;;;;21.96;57.97;98574.72;4187023;28;20659;-87
2023/05/30 07:08:16;;;;;;;6.00;3.27;;;;;;;21.80;59.28;98564.88;4199326;28;20637;-87
2023/05/30 07:10:19;;;;;;;3.97;2.60;;;;;;;21.91;59.58;98574.38;4190976;28;20637;-87
2023/05/30 07:12:22;;;;;;;3.90;2.80;;;;;;;22.03;61.77;98578.38;4202589;28;20677;-87
2023/05/30 07:14:28;;;;;;;4.00;2.33;;;;;;;22.11;59.16;98581.88;4191613;28;20723;-87
2023/05/30 07:16:33;;;;;;;4.97;3.60;;;;;;;22.24;58.82;98593.72;4204920;28;20729;-88
2023/05/30 07:18:36;;;;;;;4.73;3.03;;;;;;;22.13;59.45;98579.91;4198606;28;20676;-87
2023/05/30 07:20:40;;;;;;;4.20;2.80;;;;;;;22.32;62.89;98583.09;4199000;28;20642;-87
2023/05/30 07:22:43;;;;;;;3.20;2.30;;;;;;;22.72;60.66;98591.09;4199835;28;20671;-87
2023/05/30 07:24:46;;;;;;;2.67;2.20;;;;;;;23.12;61.42;98597.19;4199229;28;21251;-88
2023/05/30 07:26:50;;;;;;;4.77;2.80;;;;;;;23.44;57.94;98603.25;4184308;28;20672;-87
2023/05/30 07:28:53;;;;;;;5.03;2.60;;;;;;;23.52;59.54;98605.88;4198724;28;20644;-87
2023/05/30 07:30:56;;;;;;;4.30;3.00;;;;;;;23.72;57.07;98604.50;4197879;28;21238;-87
2023/05/30 07:33:01;;;;;;;7.80;2.83;;;;;;;23.73;56.90;98596.31;4184015;28;20627;-87
2023/05/30 07:35:05;;;;;;;3.50;2.70;;;;;;;23.59;56.26;98590.88;4201888;28;21191;-87
2023/05/30 07:37:08;;;;;;;4.20;2.57;;;;;;;23.58;57.05;98602.53;4198641;28;20695;-87
2023/05/30 07:39:11;;;;;;;4.60;2.73;;;;;;;23.47;55.62;98594.06;4200461;28;20629;-86
2023/05/30 07:41:14;;;;;;;3.97;2.13;;;;;;;23.43;57.12;98590.13;4180464;28;20649;-87
2023/05/30 07:43:20;;;;;;;4.23;2.50;;;;;;;23.62;58.56;98595.88;4182474;28;20619;-86
2023/05/30 07:45:23;;;;;;;4.67;2.60;;;;;;;23.62;56.35;98597.69;4185571;28;21167;-87
2023/05/30 07:47:26;;;;;;;9.23;2.93;;;;;;;23.72;56.85;98596.50;4196107;28;20644;-87
2023/05/30 07:49:31;;;;;;;4.13;2.57;;;;;;;23.95;55.53;98595.56;4180744;28;21814;-87
2023/05/30 07:51:35;;;;;;;4.73;3.00;;;;;;;23.82;55.35;98586.47;4197051;28;20673;-87
2023/05/30 07:53:39;;;;;;;3.83;2.63;;;;;;;23.79;55.54;98578.81;4200774;28;20645;-87
2023/05/30 07:55:42;;;;;;;5.17;2.50;;;;;;;23.82;54.62;98578.47;4174103;28;20634;-87
2023/05/30 07:57:47;;;;;;;5.37;2.73;;;;;;;23.78;55.09;98580.63;4199512;28;20671;-87
2023/05/30 07:59:50;;;;;;;5.70;2.40;;;;;;;24.01;55.85;98588.69;4203165;28;20648;-87
2023/05/30 08:01:53;;;;;;;6.00;2.70;;;;;;;24.43;55.13;98595.25;4197034;28;21247;-87
2023/05/30 08:03:56;;;;;;;5.57;2.57;;;;;;;24.58;54.78;98586.28;4194014;28;20635;-87
2023/05/30 08:06:01;;;;;;;5.97;2.80;;;;;;;24.64;54.74;98588.22;4193869;28;20691;-87
2023/05/30 08:08:06;;;;;;;5.67;3.27;;;;;;;24.73;54.74;98585.34;4204872;28;20630;-86
2023/05/30 08:10:10;;;;;;;4.40;2.60;;;;;;;24.62;53.21;98582.25;4193107;28;20627;-87
2023/05/30 08:12:17;;;;;;;4.80;3.20;;;;;;;24.64;54.11;98580.22;4185026;28;20632;-87
2023/05/30 08:14:20;;;;;;;5.07;2.50;;;;;;;24.58;53.08;98575.59;4201543;28;20626;-87
2023/05/30 08:16:23;;;;;;;4.67;3.23;;;;;;;24.47;53.91;98575.22;4201154;28;20646;-87
2023/05/30 08:18:31;;;;;;;9.33;3.40;;;;;;;24.51;55.20;98569.34;4189545;28;20731;-86
2023/05/30 08:20:35;;;;;;;4.20;2.87;;;;;;;24.65;53.22;98571.22;4213605;28;20671;-87
2023/05/30 08:22:40;;;;;;;4.23;2.57;;;;;;;24.78;54.53;98580.28;4203641;28;21206;-87
2023/05/30 08:24:44;;;;;;;4.10;2.83;;;;;;;25.06;54.94;98585.88;4198102;28;20634;-87
2023/05/30 08:26:48;;;;;;;4.60;3.03;;;;;;;25.12;54.15;98582.47;4186043;28;20757;-86
2023/05/30 08:28:52;;;;;;;4.27;2.90;;;;;;;25.13;54.07;98583.09;4194811;28;20627;-86
2023/05/30 08:30:55;;;;;;;4.07;2.97;;;;;;;24.96;53.14;98577.25;4181593;28;20735;-87
2023/05/30 08:32:59;;;;;;;4.10;2.97;;;;;;;24.67;52.75;98569.19;4200938;28;20641;-87
2023/05/30 08:35:02;;;;;;;4.30;3.00;;;;;;;24.82;54.57;98578.06;4189929;28;20623;-87
2023/05/30 08:37:06;;;;;;;4.60;3.23;;;;;;;24.60;53.63;98584.28;4199036;28;20635;-86
2023/05/30 08:39:12;;;;;;;5.40;2.90;;;;;;;24.43;53.54;98576.56;4179600;28;20632;-87
2023/05/30 08:41:17;;;;;;;4.17;2.90;;;;;;;24.62;53.05;98582.25;4205452;28;20626;-87
2023/05/30 08:43:20;;;;;;;6.23;3.17;;;;;;;24.87;54.61;98581.03;4208718;28;20744;-87
2023/05/30 08:45:24;;;;;;;4.83;2.87;;;;;;;24.98;53.17;98576.06;4197371;28;21025;-87
2023/05/30 08:47:27;;;;;;;7.07;3.20;;;;;;;24.90;53.11;98583.34;4202921;28;20651;-87
2023/05/30 08:49:33;;;;;;;5.10;3.03;;;;;;;25.08;54.96;98578.50;4189059;28;20657;-87
2023/05/30 08:51:37;;;;;;;3.80;2.67;;;;;;;25.20;54.13;98580.56;4181529;28;20623;-86
2023/05/30 08:53:43;;;;;;;5.20;3.30;;;;;;;25.40;53.21;98581.66;4197113;28;20682;-87
2023/05/30 08:55:52;;;;;;;4.00;3.20;;;;;;;25.44;54.15;98574.91;4199288;28;20671;-87
2023/05/30 08:57:59;;;;;;;5.13;3.20;;;;;;;25.29;52.90;98572.25;4199635;28;20682;-87
2023/05/30 09:00:05;;;;;;;5.17;3.13;;;;;;;25.31;53.49;98577.41;4197551;28;20660;-87
2023/05/30 09:02:09;;;;;;;5.70;3.80;;;;;;;25.30;54.18;98573.09;4202216;28;20623;-88
2023/05/30 09:04:12;;;;;;;4.57;2.50;;;;;;;25.35;55.08;98570.69;4206799;28;20618;-88
2023/05/30 09:06:17;;;;;;;4.63;3.27;;;;;;;25.22;53.38;98565.97;4186445;28;20684;-87
2023/05/30 09:08:22;;;;;;;4.50;3.23;;;;;;;25.27;53.69;98578.78;4205796;28;21611;-87
2023/05/30 09:10:25;;;;;;;5.00;2.60;;;;;;;25.37;53.01;98577.50;4199719;28;21258;-87
2023/05/30 09:12:33;;;;;;;9.63;3.50;;;;;;;25.58;53.98;98577.59;4197047;28;20641;-87
2023/05/30 09:14:37;;;;;;;6.60;3.20;;;;;;;25.71;54.26;98570.59;4200980;28;20624;-87
2023/05/30 09:16:40;;;;;;;5.00;3.33;;;;;;;25.88;53.56;98572.03;4199528;28;20672;-87
2023/05/30 09:18:43;;;;;;;6.00;2.93;;;;;;;25.68;52.78;98567.47;4191012;28;20658;-87
2023/05/30 09:20:47;;;;;;;5.00;3.23;;;;;;;25.57;52.72;98567.09;4201643;28;20727;-87
2023/05/30 09:22:51;;;;;;;4.10;2.97;;;;;;;25.66;52.81;98562.31;4202325;28;20633;-87
2023/05/30 09:24:56;;;;;;;6.30;3.57;;;;;;;25.74;53.82;98562.22;4201138;28;21191;-87
2023/05/30 09:27:01;;;;;;;9.37;3.60;;;;;;;25.46;52.23;98560.38;4184939;28;20652;-87
2023/05/30 09:29:12;;;;;;;4.23;3.00;;;;;;;25.14;52.02;98563.41;4200462;28;20668;-87
2023/05/30 09:31:16;;;;;;;5.20;2.90;;;;;;;24.99;52.69;98555.56;4202005;28;20702;-87
2023/05/30 09:33:19;;;;;;;4.67;3.10;;;;;;;25.03;53.80;98555.00;4200529;28;20624;-87
2023/05/30 09:35:25;;;;;;;5.17;3.20;;;;;;;25.01;53.20;98559.72;4199416;28;21213;-86
2023/05/30 09:37:36;;;;;;;4.93;2.50;;;;;;;25.20;53.81;98569.88;4205728;28;21053;-86
2023/05/30 09:39:39;;;;;;;5.27;2.83;;;;;;;25.50;55.07;98576.84;4192168;28;21267;-86
2023/05/30 09:41:46;;;;;;;4.87;3.00;;;;;;;25.64;53.42;98571.53;4200412;28;20746;-87
2023/05/30 09:43:53;;;;;;;4.47;2.90;;;;;;;25.68;51.85;98567.47;4180685;28;20636;-87
2023/05/30 09:45:57;;;;;;;5.43;3.40;;;;;;;25.72;52.62;98566.06;4199495;28;21103;-87
2023/05/30 09:48:00;;;;;;;4.60;3.17;;;;;;;25.82;52.67;98574.63;4201943;28;20927;-87